createdAt,value
2018-09-10T00:00:46.303Z,0
2018-09-10T00:02:02.203Z,0
2018-09-10T00:03:18.190Z,0
2018-09-10T00:04:34.142Z,0
2018-09-10T00:05:50.084Z,0
2018-09-10T00:07:06.131Z,0
2018-09-10T00:08:22.075Z,0
2018-09-10T00:09:38.052Z,0
2018-09-10T00:10:53.967Z,0
2018-09-10T00:12:09.967Z,0
2018-09-10T00:13:25.990Z,0
2018-09-10T00:14:41.957Z,0
2018-09-10T00:15:58.035Z,0
2018-09-10T00:17:14.071Z,0
2018-09-10T00:18:48.074Z,0
2018-09-10T00:20:04.149Z,0
2018-09-10T00:21:20.116Z,0
2018-09-10T00:22:36.032Z,0
2018-09-10T00:23:51.989Z,0
2018-09-10T00:25:08.218Z,0
2018-09-10T00:26:24.310Z,0
2018-09-10T00:27:58.318Z,0
2018-09-10T00:29:14.246Z,0
2018-09-10T00:30:30.210Z,0
2018-09-10T00:31:46.148Z,0
2018-09-10T00:33:02.212Z,0
2018-09-10T00:34:36.084Z,0
2018-09-10T00:35:52.060Z,0
2018-09-10T00:37:07.967Z,0
2018-09-10T00:38:23.884Z,0
2018-09-10T00:39:39.856Z,0
2018-09-10T00:40:55.991Z,0
2018-09-10T00:42:11.903Z,0
2018-09-10T00:43:45.829Z,0
2018-09-10T00:45:01.758Z,0
2018-09-10T00:46:17.763Z,0
2018-09-10T00:47:51.681Z,0
2018-09-10T00:49:07.840Z,0
2018-09-10T00:50:41.807Z,0
2018-09-10T00:53:31.723Z,0
2018-09-10T00:54:47.689Z,0
2018-09-10T00:56:21.560Z,0
2018-09-10T00:57:37.510Z,0
2018-09-10T00:58:53.477Z,0
2018-09-10T01:00:09.477Z,0
2018-09-10T01:01:25.525Z,0
2018-09-10T01:02:41.435Z,0
2018-09-10T01:03:57.387Z,0
2018-09-10T01:05:13.494Z,0
2018-09-10T01:06:29.540Z,0
2018-09-10T01:07:45.450Z,0
2018-09-10T01:09:01.554Z,0
2018-09-10T01:10:17.662Z,0
2018-09-10T01:11:51.536Z,0
2018-09-10T01:13:07.655Z,0
2018-09-10T01:14:23.699Z,0
2018-09-10T01:15:39.639Z,0
2018-09-10T01:16:55.585Z,0
2018-09-10T01:18:11.611Z,0
2018-09-10T01:19:27.661Z,0
2018-09-10T01:20:43.578Z,0
2018-09-10T01:21:59.716Z,0
2018-09-10T01:24:49.592Z,0
2018-09-10T01:26:06.690Z,0
2018-09-10T01:27:22.649Z,0
2018-09-10T01:28:38.571Z,0
2018-09-10T01:29:54.509Z,0
2018-09-10T01:31:10.492Z,0
2018-09-10T01:32:44.498Z,0
2018-09-10T01:34:00.572Z,0
2018-09-10T01:35:16.559Z,0
2018-09-10T01:36:32.479Z,0
2018-09-10T01:37:48.541Z,0
2018-09-10T01:39:04.600Z,0
2018-09-10T01:40:20.556Z,0
2018-09-10T01:41:36.514Z,0
2018-09-10T01:42:52.542Z,0
2018-09-10T01:44:08.527Z,0
2018-09-10T01:45:24.451Z,0
2018-09-10T01:46:40.375Z,0
2018-09-10T01:47:56.353Z,0
2018-09-10T01:49:12.514Z,0
2018-09-10T01:50:28.427Z,0
2018-09-10T01:51:44.332Z,0
2018-09-10T01:53:00.573Z,0
2018-09-10T01:54:16.463Z,0
2018-09-10T01:55:32.620Z,0
2018-09-10T01:56:48.530Z,0
2018-09-10T01:58:04.706Z,0
2018-09-10T01:59:20.696Z,0
2018-09-10T02:00:36.710Z,0
2018-09-10T02:01:52.703Z,0
2018-09-10T02:03:26.679Z,0
2018-09-10T02:04:42.647Z,0
2018-09-10T02:05:58.597Z,0
2018-09-10T02:07:14.534Z,0
2018-09-10T02:08:30.544Z,0
2018-09-10T02:09:46.473Z,0
2018-09-10T02:11:02.492Z,0
2018-09-10T02:12:18.579Z,0
2018-09-10T02:13:34.590Z,0
2018-09-10T02:14:50.529Z,0
2018-09-10T02:16:06.435Z,0
2018-09-10T02:17:22.337Z,0
2018-09-10T02:18:38.358Z,0
2018-09-10T02:19:54.292Z,0
2018-09-10T02:21:10.363Z,0
2018-09-10T02:22:26.335Z,0
2018-09-10T02:23:42.328Z,0
2018-09-10T02:24:58.323Z,0
2018-09-10T02:26:14.269Z,0
2018-09-10T02:27:30.340Z,0
2018-09-10T02:28:46.130Z,0
2018-09-10T02:31:34.949Z,0
2018-09-10T02:33:08.832Z,0
2018-09-10T02:34:24.920Z,0
2018-09-10T02:35:58.791Z,0
2018-09-10T02:37:14.807Z,0
2018-09-10T02:38:30.753Z,0
2018-09-10T02:39:46.738Z,0
2018-09-10T02:41:02.752Z,0
2018-09-10T02:42:18.772Z,0
2018-09-10T02:43:34.672Z,0
2018-09-10T02:45:08.653Z,0
2018-09-10T02:46:24.567Z,0
2018-09-10T02:47:40.461Z,0
2018-09-10T02:48:56.377Z,0
2018-09-10T02:50:31.216Z,0
2018-09-10T02:51:47.127Z,0
2018-09-10T02:53:03.061Z,0
2018-09-10T02:54:19.041Z,0
2018-09-10T02:55:35.056Z,0
2018-09-10T02:56:51.111Z,0
2018-09-10T02:58:07.105Z,0
2018-09-10T02:59:23.076Z,0
2018-09-10T03:00:39.061Z,0
2018-09-10T03:01:54.990Z,0
2018-09-10T03:03:28.794Z,0
2018-09-10T03:04:44.826Z,0
2018-09-10T03:06:00.775Z,0
2018-09-10T03:07:16.716Z,0
2018-09-10T03:08:50.553Z,0
2018-09-10T03:10:06.468Z,0
2018-09-10T03:11:22.392Z,0
2018-09-10T03:12:38.321Z,0
2018-09-10T03:13:54.271Z,0
2018-09-10T03:15:10.333Z,0
2018-09-10T03:16:26.294Z,0
2018-09-10T03:17:42.303Z,0
2018-09-10T03:18:58.355Z,0
2018-09-10T03:20:14.352Z,0
2018-09-10T03:21:30.295Z,0
2018-09-10T03:22:46.220Z,0
2018-09-10T03:24:02.176Z,0
2018-09-10T03:25:36.122Z,0
2018-09-10T03:26:52.184Z,0
2018-09-10T03:28:08.086Z,0
2018-09-10T03:29:41.915Z,0
2018-09-10T03:30:57.884Z,0
2018-09-10T03:32:13.979Z,0
2018-09-10T03:33:30.983Z,0
2018-09-10T03:34:46.815Z,0
2018-09-10T03:36:02.812Z,0
2018-09-10T03:37:36.705Z,0
2018-09-10T03:38:52.809Z,0
2018-09-10T03:40:08.841Z,0
2018-09-10T03:41:24.810Z,0
2018-09-10T03:42:40.814Z,0
2018-09-10T03:43:56.747Z,0
2018-09-10T03:45:12.731Z,0
2018-09-10T03:46:46.693Z,0
2018-09-10T03:48:02.639Z,0
2018-09-10T03:49:18.515Z,0
2018-09-10T03:50:34.435Z,0
2018-09-10T03:51:50.398Z,0
2018-09-10T03:53:24.409Z,0
2018-09-10T03:54:40.366Z,0
2018-09-10T03:55:56.405Z,0
2018-09-10T03:57:12.453Z,0
2018-09-10T03:58:28.385Z,0
2018-09-10T03:59:44.352Z,0
2018-09-10T04:01:00.277Z,0
2018-09-10T04:02:16.307Z,0
2018-09-10T04:03:32.290Z,0
2018-09-10T04:04:48.238Z,0
2018-09-10T04:06:22.088Z,0
2018-09-10T04:07:56.933Z,0
2018-09-10T04:09:12.896Z,0
2018-09-10T04:10:28.968Z,0
2018-09-10T04:11:44.978Z,0
2018-09-10T04:13:00.924Z,0
2018-09-10T04:14:16.852Z,0
2018-09-10T04:15:32.937Z,0
2018-09-10T04:18:22.802Z,0
2018-09-10T04:19:38.735Z,0
2018-09-10T04:20:54.710Z,0
2018-09-10T04:22:11.021Z,0
2018-09-10T04:23:27.020Z,0
2018-09-10T04:24:42.970Z,1
2018-09-10T04:25:58.971Z,0
2018-09-10T04:27:14.879Z,0
2018-09-10T04:28:30.961Z,1
2018-09-10T04:30:04.794Z,1
2018-09-10T04:31:20.867Z,1
2018-09-10T04:32:36.767Z,1
2018-09-10T04:33:52.772Z,2
2018-09-10T04:35:08.840Z,2
2018-09-10T04:36:24.865Z,3
2018-09-10T04:37:40.879Z,3
2018-09-10T04:38:56.858Z,4
2018-09-10T04:40:12.965Z,5
2018-09-10T04:43:09.505Z,8
2018-09-10T05:11:24.265Z,91
2018-09-10T05:12:58.183Z,95
2018-09-10T05:14:14.119Z,98
2018-09-10T05:15:30.178Z,103
2018-09-10T05:17:04.054Z,108
2018-09-10T05:18:20.404Z,113
2018-09-10T05:19:36.454Z,118
2018-09-10T05:21:10.342Z,124
2018-09-10T05:22:26.419Z,128
2018-09-10T05:24:00.300Z,137
2018-09-10T05:25:16.368Z,147
2018-09-10T05:26:32.594Z,154
2018-09-10T05:28:06.443Z,163
2018-09-10T05:29:22.486Z,168
2018-09-10T05:30:38.537Z,170
2018-09-10T05:31:54.477Z,172
2018-09-10T05:33:10.501Z,177
2018-09-10T05:34:26.715Z,184
2018-09-10T05:35:42.762Z,210
2018-09-10T05:36:58.802Z,234
2018-09-10T05:38:14.734Z,245
2018-09-10T05:39:30.686Z,254
2018-09-10T05:40:46.835Z,260
2018-09-10T05:42:02.953Z,259
2018-09-10T05:43:37.932Z,284
2018-09-10T05:44:53.896Z,297
2018-09-10T05:46:09.859Z,308
2018-09-10T05:47:25.828Z,318
2018-09-10T05:48:41.785Z,327
2018-09-10T05:49:57.844Z,336
2018-09-10T05:51:13.773Z,346
2018-09-10T06:00:40.671Z,406
2018-09-10T06:01:57.779Z,414
2018-09-10T06:03:13.886Z,420
2018-09-10T06:04:29.817Z,427
2018-09-10T06:05:45.819Z,433
2018-09-10T06:07:01.885Z,438
2018-09-10T06:08:36.858Z,445
2018-09-10T06:09:52.820Z,451
2018-09-10T06:11:26.666Z,459
2018-09-10T06:12:42.722Z,464
2018-09-10T06:13:58.659Z,471
2018-09-10T06:15:14.647Z,475
2018-09-10T06:16:30.666Z,481
2018-09-10T06:17:46.791Z,488
2018-09-10T06:19:02.728Z,492
2018-09-10T06:20:18.741Z,499
2018-09-10T06:21:35.802Z,506
2018-09-10T06:22:51.812Z,512
2018-09-10T06:24:08.003Z,517
2018-09-10T06:25:24.001Z,524
2018-09-10T06:26:57.980Z,531
2018-09-10T06:28:13.892Z,538
2018-09-10T06:29:47.737Z,538
2018-09-10T06:31:03.713Z,555
2018-09-10T06:32:19.776Z,561
2018-09-10T06:33:54.674Z,571
2018-09-10T06:35:10.844Z,579
2018-09-10T06:36:26.759Z,588
2018-09-10T06:37:42.802Z,595
2018-09-10T06:38:58.945Z,601
2018-09-10T06:40:14.946Z,605
2018-09-10T06:41:30.884Z,616
2018-09-10T06:42:46.836Z,623
2018-09-10T06:44:20.728Z,631
2018-09-10T06:45:54.541Z,642
2018-09-10T06:47:10.617Z,647
2018-09-10T06:48:26.749Z,657
2018-09-10T06:49:42.879Z,665
2018-09-10T06:51:16.695Z,677
2018-09-10T06:54:06.839Z,695
2018-09-10T06:55:22.908Z,701
2018-09-10T06:56:38.839Z,702
2018-09-10T06:57:54.988Z,713
2018-09-10T07:01:02.805Z,757
2018-09-10T07:02:36.675Z,773
2018-09-10T07:03:52.828Z,756
2018-09-10T07:05:08.845Z,761
2018-09-10T07:06:42.747Z,778
2018-09-10T07:07:58.757Z,798
2018-09-10T07:09:14.821Z,818
2018-09-10T07:12:04.733Z,920
2018-09-10T07:13:20.680Z,975
2018-09-10T07:14:36.740Z,1000
2018-09-10T07:15:52.751Z,909
2018-09-10T07:17:08.780Z,845
2018-09-10T07:18:42.829Z,845
2018-09-10T07:19:59.002Z,857
2018-09-10T07:21:15.924Z,877
2018-09-10T07:22:31.857Z,892
2018-09-10T07:23:47.842Z,908
2018-09-10T07:25:03.961Z,889
2018-09-10T07:26:19.867Z,906
2018-09-10T07:27:54.662Z,915
2018-09-10T07:29:10.608Z,913
2018-09-10T07:30:26.584Z,927
2018-09-10T07:31:42.622Z,930
2018-09-10T07:32:58.522Z,943
2018-09-10T07:34:32.457Z,959
2018-09-10T07:35:48.518Z,970
2018-09-10T07:37:04.449Z,996
2018-09-10T07:38:38.362Z,1002
2018-09-10T07:39:54.360Z,1011
2018-09-10T07:41:10.381Z,1027
2018-09-10T07:42:27.321Z,1040
2018-09-10T07:44:01.306Z,1053
2018-09-10T07:45:17.203Z,1061
2018-09-10T07:46:33.262Z,1061
2018-09-10T07:47:49.435Z,1097
2018-09-10T07:49:05.364Z,1146
2018-09-10T07:50:21.319Z,1155
2018-09-10T07:51:37.358Z,1166
2018-09-10T07:52:53.487Z,1143
2018-09-10T07:54:09.556Z,1125
2018-09-10T07:55:25.485Z,1122
2018-09-10T07:58:15.388Z,1253
2018-09-10T07:59:31.436Z,1293
2018-09-10T08:00:47.672Z,1323
2018-09-10T08:02:03.786Z,1408
2018-09-10T08:03:38.789Z,1629
2018-09-10T08:04:54.780Z,1729
2018-09-10T08:06:10.762Z,1773
2018-09-10T08:07:26.710Z,1750
2018-09-10T08:08:42.819Z,1784
2018-09-10T08:09:58.847Z,1787
2018-09-10T08:11:14.752Z,1798
2018-09-10T08:12:30.814Z,1789
2018-09-10T08:13:46.796Z,1804
2018-09-10T08:15:21.788Z,1808
2018-09-10T08:16:37.816Z,1802
2018-09-10T08:17:53.752Z,1811
2018-09-10T08:20:43.486Z,1818
2018-09-10T08:21:59.419Z,1814
2018-09-10T08:23:15.452Z,1824
2018-09-10T08:24:31.575Z,1818
2018-09-10T08:25:47.427Z,1811
2018-09-10T08:27:03.658Z,1817
2018-09-10T08:28:19.684Z,1808
2018-09-10T08:29:35.612Z,1818
2018-09-10T08:31:09.589Z,1791
2018-09-10T08:32:25.641Z,1794
2018-09-10T08:33:41.636Z,1808
2018-09-10T08:34:57.666Z,1807
2018-09-10T08:36:31.466Z,1804
2018-09-10T08:38:05.313Z,1789
2018-09-10T08:39:21.329Z,1789
2018-09-10T08:40:56.360Z,1805
2018-09-10T08:42:30.282Z,1794
2018-09-10T08:43:46.214Z,1805
2018-09-10T08:45:02.335Z,1804
2018-09-10T08:46:18.255Z,1818
2018-09-10T08:47:34.220Z,1815
2018-09-10T08:48:50.319Z,1813
2018-09-10T08:51:59.613Z,1809
2018-09-10T08:53:33.552Z,1815
2018-09-10T08:54:49.854Z,1799
2018-09-10T08:56:05.861Z,1811
2018-09-10T08:57:21.576Z,1810
2018-09-10T08:58:56.427Z,1823
2018-09-10T09:00:12.478Z,1829
2018-09-10T09:01:28.405Z,1827
2018-09-10T09:02:44.339Z,1840
2018-09-10T09:04:00.292Z,1839
2018-09-10T09:05:16.346Z,1848
2018-09-10T09:06:32.309Z,1875
2018-09-10T09:08:07.442Z,1851
2018-09-10T09:09:23.380Z,1872
2018-09-10T09:10:39.371Z,1896
2018-09-10T09:11:55.423Z,1905
2018-09-10T09:13:29.272Z,1926
2018-09-10T09:14:45.296Z,1877
2018-09-10T09:16:01.333Z,1943
2018-09-10T09:17:17.502Z,1966
2018-09-10T09:18:33.426Z,1968
2018-09-10T09:19:49.525Z,1989
2018-09-10T09:21:05.669Z,2009
2018-09-10T09:22:39.514Z,2022
2018-09-10T09:23:55.600Z,2039
2018-09-10T09:25:11.824Z,2059
2018-09-10T09:26:27.796Z,2084
2018-09-10T09:27:43.727Z,2109
2018-09-10T09:29:17.569Z,2118
2018-09-10T09:30:33.710Z,2137
2018-09-10T09:31:49.725Z,2148
2018-09-10T09:33:05.700Z,2161
2018-09-10T09:34:21.806Z,2187
2018-09-10T09:35:37.754Z,2195
2018-09-10T09:36:53.733Z,2201
2018-09-10T09:38:09.752Z,2212
2018-09-10T09:39:25.807Z,2262
2018-09-10T09:40:41.804Z,2253
2018-09-10T09:41:57.896Z,2321
2018-09-10T09:43:31.840Z,2326
2018-09-10T09:44:47.764Z,2334
2018-09-10T09:47:37.682Z,2292
2018-09-10T09:48:53.778Z,2312
2018-09-10T09:50:09.731Z,2291
2018-09-10T09:51:25.740Z,2382
2018-09-10T09:52:41.691Z,2477
2018-09-10T09:53:57.658Z,2469
2018-09-10T09:55:13.614Z,2462
2018-09-10T09:56:29.615Z,2493
2018-09-10T09:57:45.616Z,2559
2018-09-10T09:59:01.789Z,2613
2018-09-10T10:00:17.807Z,2402
2018-09-10T10:01:33.801Z,2288
2018-09-10T10:02:49.720Z,2273
2018-09-10T10:04:23.556Z,2549
2018-09-10T10:05:39.583Z,2698
2018-09-10T10:07:13.449Z,2660
2018-09-10T10:08:29.442Z,2584
2018-09-10T10:09:45.395Z,2717
2018-09-10T10:11:19.420Z,2669
2018-09-10T10:12:35.555Z,2655
2018-09-10T10:13:51.433Z,2609
2018-09-10T10:15:07.652Z,2676
2018-09-10T10:16:23.708Z,2666
2018-09-10T10:17:39.643Z,2642
2018-09-10T10:18:55.588Z,2618
2018-09-10T10:20:11.548Z,2633
2018-09-10T10:21:45.485Z,2586
2018-09-10T10:23:01.535Z,2621
2018-09-10T10:24:17.524Z,2610
2018-09-10T10:25:51.512Z,2602
2018-09-10T10:27:07.588Z,2596
2018-09-10T10:28:23.576Z,2643
2018-09-10T10:29:39.566Z,2647
2018-09-10T10:30:55.633Z,2542
2018-09-10T10:32:11.704Z,2582
2018-09-10T10:33:27.648Z,2583
2018-09-10T10:34:43.617Z,2377
2018-09-10T10:35:59.571Z,2214
2018-09-10T10:37:15.843Z,2215
2018-09-10T10:38:31.895Z,2535
2018-09-10T10:40:06.014Z,3096
2018-09-10T10:41:22.041Z,3147
2018-09-10T10:42:38.171Z,3231
2018-09-10T10:44:12.094Z,3004
2018-09-10T10:45:28.127Z,2828
2018-09-10T10:46:44.087Z,2839
2018-09-10T10:48:00.074Z,2921
2018-09-10T10:49:16.188Z,2754
2018-09-10T10:50:32.287Z,2899
2018-09-10T10:51:48.368Z,2658
2018-09-10T10:53:04.575Z,3106
2018-09-10T10:54:20.557Z,3172
2018-09-10T10:55:36.476Z,3455
2018-09-10T10:56:52.618Z,3516
2018-09-10T10:58:08.669Z,3528
2018-09-10T10:59:42.593Z,3167
2018-09-10T11:00:58.622Z,3020
2018-09-10T11:02:14.584Z,2816
2018-09-10T11:03:30.670Z,2611
2018-09-10T11:04:46.714Z,2860
2018-09-10T11:06:02.749Z,3109
2018-09-10T11:07:18.718Z,3103
2018-09-10T11:08:34.691Z,3460
2018-09-10T11:09:50.836Z,3523
2018-09-10T11:11:24.713Z,3417
2018-09-10T11:12:40.732Z,3434
2018-09-10T11:13:56.837Z,3351
2018-09-10T11:15:12.896Z,3404
2018-09-10T11:16:28.929Z,3351
2018-09-10T11:17:44.912Z,3136
2018-09-10T11:19:18.789Z,3062
2018-09-10T11:20:34.836Z,2998
2018-09-10T11:21:50.918Z,2966
2018-09-10T11:23:06.994Z,2798
2018-09-10T11:24:22.923Z,3100
2018-09-10T11:25:39.870Z,2982
2018-09-10T11:27:13.718Z,2815
2018-09-10T11:28:29.908Z,2582
2018-09-10T11:29:46.084Z,2528
2018-09-10T11:31:02.199Z,2738
2018-09-10T11:32:36.041Z,3025
2018-09-10T11:33:52.090Z,3015
2018-09-10T11:35:08.303Z,2988
2018-09-10T11:36:24.218Z,2965
2018-09-10T11:37:40.139Z,2947
2018-09-10T11:38:56.116Z,2835
2018-09-10T11:40:12.086Z,2780
2018-09-10T11:43:01.925Z,2745
2018-09-10T11:44:17.924Z,2765
2018-09-10T11:45:33.959Z,2719
2018-09-10T11:46:50.079Z,2582
2018-09-10T11:48:23.992Z,2516
2018-09-10T11:49:39.951Z,2505
2018-09-10T11:50:55.936Z,2508
2018-09-10T11:52:12.051Z,2438
2018-09-10T11:53:28.170Z,2546
2018-09-10T11:54:44.346Z,2621
2018-09-10T11:56:00.419Z,2587
2018-09-10T11:57:16.366Z,2568
2018-09-10T11:58:32.339Z,2583
2018-09-10T11:59:48.436Z,2693
2018-09-10T12:01:04.580Z,2770
2018-09-10T12:02:20.653Z,2704
2018-09-10T12:03:36.658Z,2746
2018-09-10T12:04:52.690Z,2690
2018-09-10T12:06:08.918Z,2859
2018-09-10T12:07:24.961Z,2793
2018-09-10T12:10:21.567Z,3305
2018-09-10T12:11:55.482Z,3331
2018-09-10T12:13:11.632Z,3074
2018-09-10T12:14:46.489Z,2980
2018-09-10T12:16:02.496Z,2932
2018-09-10T12:17:18.588Z,3070
2018-09-10T12:18:34.496Z,2899
2018-09-10T12:19:50.472Z,2746
2018-09-10T12:22:29.534Z,2611
2018-09-10T12:23:45.487Z,2633
2018-09-10T12:25:01.451Z,2639
2018-09-10T12:38:45.676Z,2746
2018-09-10T12:40:01.780Z,2557
2018-09-10T12:41:17.799Z,2359
2018-09-10T12:42:33.774Z,2724
2018-09-10T12:44:07.747Z,2826
2018-09-10T12:45:23.672Z,2710
2018-09-10T12:46:39.763Z,2719
2018-09-10T12:47:55.895Z,2627
2018-09-10T12:49:12.162Z,2570
2018-09-10T12:50:28.036Z,2456
2018-09-10T12:51:44.192Z,2439
2018-09-10T12:53:36.992Z,2855
2018-09-10T12:54:53.424Z,2742
2018-09-10T12:56:09.635Z,2730
2018-09-10T12:57:43.571Z,2738
2018-09-10T12:58:59.617Z,3084
2018-09-10T13:00:15.657Z,3065
2018-09-10T13:01:31.827Z,2851
2018-09-10T13:02:47.796Z,2858
2018-09-10T13:04:03.835Z,2598
2018-09-10T13:05:19.851Z,2300
2018-09-10T13:06:54.826Z,2370
2018-09-10T13:08:11.428Z,2292
2018-09-10T13:09:28.168Z,3122
2018-09-10T13:10:44.143Z,3207
2018-09-10T13:12:00.239Z,2381
2018-09-10T13:13:34.114Z,2996
2018-09-10T13:14:50.180Z,3189
2018-09-10T13:16:06.161Z,3041
2018-09-10T13:17:22.219Z,3128
2018-09-10T13:18:38.300Z,3116
2018-09-10T13:20:12.281Z,3264
2018-09-10T13:21:28.301Z,3188
2018-09-10T13:22:44.464Z,3040
2018-09-10T13:24:00.465Z,2864
2018-09-10T13:25:16.528Z,2811
2018-09-10T13:26:32.484Z,2872
2018-09-10T13:27:48.608Z,2935
2018-09-10T13:29:22.983Z,2939
2018-09-10T13:30:39.619Z,2920
2018-09-10T13:32:13.507Z,2934
2018-09-10T13:33:30.073Z,3008
2018-09-10T13:34:46.082Z,3007
2018-09-10T13:36:02.133Z,2494
2018-09-10T13:37:18.482Z,2542
2018-09-10T13:38:34.552Z,2666
2018-09-10T13:39:50.662Z,2714
2018-09-10T13:41:24.604Z,2469
2018-09-10T13:42:40.677Z,2373
2018-09-10T13:43:56.651Z,2423
2018-09-10T13:45:12.608Z,2492
2018-09-10T13:46:28.811Z,2572
2018-09-10T13:47:45.827Z,2461
2018-09-10T13:49:19.826Z,2495
2018-09-10T13:50:35.869Z,2796
2018-09-10T13:51:52.010Z,3245
2018-09-10T13:53:08.013Z,3079
2018-09-10T13:54:23.983Z,2803
2018-09-10T13:55:40.003Z,2762
2018-09-10T13:56:55.909Z,2831
2018-09-10T13:58:11.826Z,3123
2018-09-10T13:59:27.787Z,3091
2018-09-10T14:00:43.736Z,3028
2018-09-10T14:02:18.578Z,2975
2018-09-10T14:03:34.523Z,2948
2018-09-10T14:04:50.619Z,2963
2018-09-10T14:06:06.611Z,2894
2018-09-10T14:07:40.492Z,3325
2018-09-10T14:08:56.596Z,3301
2018-09-10T14:10:30.520Z,3185
2018-09-10T14:11:46.514Z,3337
2018-09-10T14:13:20.504Z,3219
2018-09-10T14:14:36.469Z,3024
2018-09-10T14:16:10.394Z,2899
2018-09-10T14:17:44.297Z,3141
2018-09-10T14:19:00.502Z,3120
2018-09-10T14:20:16.604Z,3126
2018-09-10T14:21:32.581Z,3150
2018-09-10T14:22:48.643Z,3155
2018-09-10T14:24:04.625Z,2996
2018-09-10T14:25:20.760Z,3076
2018-09-10T14:26:36.815Z,3103
2018-09-10T14:27:52.790Z,3070
2018-09-10T14:29:08.956Z,2903
2018-09-10T14:30:24.962Z,3126
2018-09-10T14:31:40.988Z,3420
2018-09-10T14:32:56.961Z,4023
2018-09-10T14:34:31.037Z,5025
2018-09-10T14:35:46.939Z,4909
2018-09-10T14:37:02.899Z,4221
2018-09-10T14:38:36.764Z,3991
2018-09-10T14:40:10.720Z,4696
2018-09-10T14:41:26.670Z,5628
2018-09-10T14:42:42.696Z,5171
2018-09-10T14:43:58.830Z,5024
2018-09-10T14:45:14.934Z,3700
2018-09-10T14:46:49.972Z,3660
2018-09-10T14:48:05.952Z,3379
2018-09-10T14:49:21.967Z,3293
2018-09-10T14:50:38.210Z,3417
2018-09-10T14:51:54.182Z,3555
2018-09-10T14:53:10.245Z,3763
2018-09-10T14:54:26.309Z,4374
2018-09-10T14:55:42.337Z,5106
2018-09-10T14:56:58.284Z,5709
2018-09-10T14:58:32.375Z,6705
2018-09-10T14:59:48.142Z,7673
2018-09-10T15:01:04.108Z,3392
2018-09-10T15:02:20.081Z,2719
2018-09-10T15:03:36.082Z,2829
2018-09-10T15:04:52.230Z,3533
2018-09-10T15:06:08.399Z,5219
2018-09-10T15:07:24.500Z,7412
2018-09-10T15:08:40.532Z,9592
2018-09-10T15:09:56.512Z,11665
2018-09-10T15:11:12.530Z,10768
2018-09-10T15:12:28.702Z,6970
2018-09-10T15:14:02.541Z,5758
2018-09-10T15:15:18.555Z,5629
2018-09-10T15:16:34.672Z,5689
2018-09-10T15:18:08.572Z,6907
2018-09-10T15:19:24.528Z,5774
2018-09-10T15:20:40.459Z,3141
2018-09-10T15:22:14.329Z,2347
2018-09-10T15:23:30.304Z,2220
2018-09-10T15:24:46.374Z,1925
2018-09-10T15:26:02.433Z,1601
2018-09-10T15:27:18.337Z,1449
2018-09-10T15:28:34.478Z,1438
2018-09-10T15:30:08.337Z,1493
2018-09-10T15:31:42.225Z,1520
2018-09-10T15:32:58.369Z,1805
2018-09-10T15:34:14.492Z,1608
2018-09-10T15:35:30.444Z,1483
2018-09-10T15:37:04.322Z,1493
2018-09-10T15:38:21.315Z,1457
2018-09-10T15:39:37.295Z,1760
2018-09-10T15:40:53.355Z,2223
2018-09-10T15:42:27.241Z,2836
2018-09-10T15:43:43.332Z,4955
2018-09-10T15:44:59.344Z,5916
2018-09-10T15:46:15.380Z,6349
2018-09-10T15:47:31.382Z,4409
2018-09-10T15:48:47.421Z,2530
2018-09-10T15:50:03.434Z,2096
2018-09-10T15:51:37.384Z,1926
2018-09-10T15:52:53.547Z,1794
2018-09-10T15:54:09.553Z,1631
2018-09-10T15:55:25.763Z,1565
2018-09-10T15:56:41.727Z,1572
2018-09-10T15:57:57.851Z,1633
2018-09-10T15:59:32.986Z,1573
2018-09-10T16:00:48.955Z,1480
2018-09-10T16:02:23.006Z,1621
2018-09-10T16:03:38.999Z,1709
2018-09-10T16:04:55.174Z,1695
2018-09-10T16:06:11.182Z,1547
2018-09-10T16:07:27.252Z,1345
2018-09-10T16:08:43.373Z,1267
2018-09-10T16:09:59.525Z,1217
2018-09-10T16:11:15.488Z,1172
2018-09-10T16:14:13.155Z,1194
2018-09-10T16:15:47.070Z,1130
2018-09-10T16:17:03.229Z,1124
2018-09-10T16:18:37.139Z,1083
2018-09-10T16:22:15.868Z,1115
2018-09-10T16:23:31.926Z,1382
2018-09-10T16:24:48.104Z,1322
2018-09-10T16:26:23.083Z,1222
2018-09-10T16:27:39.115Z,1113
2018-09-10T16:28:55.090Z,1011
2018-09-10T16:30:11.286Z,1118
2018-09-10T16:31:27.343Z,1085
2018-09-10T16:35:40.318Z,982
2018-09-10T16:36:56.485Z,986
2018-09-10T16:38:12.525Z,962
2018-09-10T16:39:28.501Z,862
2018-09-10T16:42:39.991Z,725
2018-09-10T16:43:55.984Z,707
2018-09-10T16:45:12.099Z,646
2018-09-10T16:46:28.210Z,595
2018-09-10T16:47:44.217Z,559
2018-09-10T16:49:18.211Z,556
2018-09-10T16:50:34.317Z,577
2018-09-10T16:51:50.435Z,543
2018-09-10T16:53:24.379Z,500
2018-09-10T16:54:40.991Z,470
2018-09-10T16:55:57.021Z,448
2018-09-10T16:57:13.084Z,423
2018-09-10T17:00:21.000Z,376
2018-09-10T17:01:37.094Z,353
2018-09-10T17:02:53.305Z,333
2018-09-10T17:04:09.327Z,318
2018-09-10T17:05:25.363Z,305
2018-09-10T17:06:41.438Z,291
2018-09-10T17:07:57.552Z,280
2018-09-10T17:09:32.516Z,265
2018-09-10T17:10:48.695Z,256
2018-09-10T17:12:04.784Z,247
2018-09-10T17:13:20.977Z,239
2018-09-10T17:14:37.127Z,242
2018-09-10T17:15:53.210Z,260
2018-09-10T17:17:09.233Z,301
2018-09-10T17:18:25.252Z,330
2018-09-10T17:19:41.298Z,389
2018-09-10T17:21:15.248Z,333
2018-09-10T17:22:31.450Z,852
2018-09-10T17:23:47.469Z,1155
2018-09-10T17:25:21.386Z,834
2018-09-10T17:26:37.420Z,257
2018-09-10T17:27:53.426Z,192
2018-09-10T17:29:27.531Z,164
2018-09-10T17:30:43.595Z,140
2018-09-10T17:31:59.619Z,117
2018-09-10T17:33:15.685Z,104
2018-09-10T17:34:31.706Z,90
2018-09-10T17:35:47.772Z,77
2018-09-10T17:37:03.933Z,67
2018-09-10T17:38:20.006Z,59
2018-09-10T17:39:36.127Z,52
2018-09-10T17:40:52.109Z,45
2018-09-10T17:42:08.256Z,39
2018-09-10T17:43:24.464Z,33
2018-09-10T17:44:59.391Z,28
2018-09-10T17:49:12.287Z,18
2018-09-10T17:50:28.446Z,15
2018-09-10T17:51:44.609Z,13
2018-09-10T17:53:00.626Z,10
2018-09-10T17:54:16.779Z,9
2018-09-10T17:55:32.747Z,7
2018-09-10T18:16:19.668Z,5
2018-09-10T18:17:35.811Z,0
2018-09-10T18:18:51.798Z,0
2018-09-10T18:20:07.960Z,0
2018-09-10T18:21:42.810Z,0
2018-09-10T18:22:58.802Z,0
2018-09-10T18:24:14.783Z,0
2018-09-10T18:25:30.933Z,0
2018-09-10T18:26:47.029Z,0
2018-09-10T18:28:02.987Z,0
2018-09-10T18:31:11.008Z,0
2018-09-10T18:32:27.085Z,0
2018-09-10T18:33:43.072Z,0
2018-09-10T18:34:59.220Z,0
2018-09-10T18:36:15.335Z,0
2018-09-10T18:37:31.351Z,0
2018-09-10T18:38:47.421Z,0
2018-09-10T18:40:03.464Z,0
2018-09-10T18:41:19.515Z,0
2018-09-10T18:42:35.603Z,0
2018-09-10T18:43:51.706Z,0
2018-09-10T18:45:25.606Z,0
2018-09-10T18:46:41.840Z,0
2018-09-10T18:47:57.934Z,0
2018-09-10T18:49:14.002Z,0
2018-09-10T18:50:30.190Z,0
2018-09-10T18:52:05.194Z,0
2018-09-10T18:53:39.190Z,0
2018-09-10T18:55:13.143Z,0
2018-09-10T18:58:03.236Z,0
2018-09-10T18:59:19.329Z,0
2018-09-10T19:00:35.601Z,0
2018-09-10T19:01:51.633Z,0
2018-09-10T19:03:26.555Z,0
2018-09-10T19:05:00.554Z,0
2018-09-10T19:06:16.702Z,0
2018-09-10T19:07:32.903Z,0
2018-09-10T19:08:48.956Z,0
2018-09-10T19:10:05.084Z,0
2018-09-10T19:11:21.275Z,0
2018-09-10T19:12:37.373Z,0
2018-09-10T19:13:54.358Z,0
2018-09-10T19:15:10.582Z,0
2018-09-10T19:16:26.597Z,0
2018-09-10T19:18:00.551Z,0
2018-09-10T19:19:16.751Z,0
2018-09-10T19:20:32.867Z,0
2018-09-10T19:21:48.942Z,0
2018-09-10T19:23:05.149Z,0
2018-09-10T19:24:40.036Z,0
2018-09-10T19:25:56.163Z,0
2018-09-10T19:27:12.221Z,0
2018-09-10T19:28:28.376Z,0
2018-09-10T19:30:02.408Z,0
2018-09-10T19:31:18.400Z,0
2018-09-10T19:32:52.296Z,0
2018-09-10T19:34:08.494Z,0
2018-09-10T19:35:24.499Z,0
2018-09-10T19:36:40.572Z,0
2018-09-10T19:39:37.481Z,0
2018-09-10T19:40:53.557Z,0
2018-09-10T19:42:09.704Z,0
2018-09-10T19:43:25.778Z,0
2018-09-10T19:44:41.883Z,0
2018-09-10T19:45:57.872Z,0
2018-09-10T19:47:13.922Z,0
2018-09-10T19:48:29.991Z,0
2018-09-10T19:49:46.088Z,0
2018-09-10T19:51:02.082Z,0
2018-09-10T19:52:18.142Z,0
2018-09-10T19:53:34.211Z,0
2018-09-10T19:54:50.353Z,0
2018-09-10T19:56:06.428Z,0
2018-09-10T19:58:45.936Z,0
2018-09-10T20:00:19.832Z,0
2018-09-10T20:01:53.792Z,0
2018-09-10T20:03:09.844Z,0
2018-09-10T20:04:25.952Z,0
2018-09-10T20:05:42.027Z,0
2018-09-10T20:06:58.058Z,0